createdAt,value
2019-03-31T00:00:15.083Z,8.30
2019-03-31T00:01:15.113Z,8.22
2019-03-31T00:02:15.140Z,8.19
2019-03-31T00:03:15.168Z,8.23
2019-03-31T00:04:15.196Z,8.22
2019-03-31T00:05:15.230Z,8.23
2019-03-31T00:06:15.254Z,8.25
2019-03-31T00:07:15.281Z,8.19
2019-03-31T00:08:15.310Z,8.22
2019-03-31T00:09:15.336Z,8.19
2019-03-31T00:10:15.365Z,8.08
2019-03-31T00:11:15.394Z,8.18
2019-03-31T00:12:15.422Z,8.16
2019-03-31T00:13:15.450Z,8.05
2019-03-31T00:14:15.481Z,8.11
2019-03-31T00:15:15.506Z,8.10
2019-03-31T00:16:15.533Z,8.01
2019-03-31T00:17:15.562Z,7.95
2019-03-31T00:18:15.590Z,7.95
2019-03-31T00:19:15.621Z,7.85
2019-03-31T00:20:15.647Z,7.90
2019-03-31T00:21:15.674Z,7.92
2019-03-31T00:22:15.704Z,7.95
2019-03-31T00:23:15.731Z,7.82
2019-03-31T00:24:15.758Z,7.77
2019-03-31T00:25:15.786Z,7.80
2019-03-31T00:26:15.817Z,7.77
2019-03-31T00:27:15.843Z,7.83
2019-03-31T00:28:15.871Z,7.89
2019-03-31T00:29:15.899Z,7.90
2019-03-31T00:30:15.927Z,8.00
2019-03-31T00:31:21.977Z,7.93
2019-03-31T00:32:15.984Z,7.97
2019-03-31T00:33:16.013Z,7.83
2019-03-31T00:34:16.039Z,7.75
2019-03-31T00:35:16.070Z,7.80
2019-03-31T00:36:16.095Z,7.87
2019-03-31T00:37:16.123Z,7.69
2019-03-31T00:38:16.203Z,7.64
2019-03-31T00:39:16.179Z,7.75
2019-03-31T00:40:16.207Z,7.74
2019-03-31T00:41:16.236Z,7.72
2019-03-31T00:42:16.263Z,7.71
2019-03-31T00:43:16.292Z,7.63
2019-03-31T00:44:16.319Z,7.77
2019-03-31T00:45:16.347Z,7.69
2019-03-31T00:46:16.380Z,7.86
2019-03-31T00:47:16.406Z,7.74
2019-03-31T00:48:16.431Z,7.61
2019-03-31T00:49:16.459Z,7.61
2019-03-31T00:50:16.487Z,7.58
2019-03-31T00:51:16.516Z,7.71
2019-03-31T00:52:16.543Z,7.69
2019-03-31T00:53:16.570Z,7.77
2019-03-31T00:54:16.599Z,7.72
2019-03-31T00:55:16.628Z,7.60
2019-03-31T00:56:16.655Z,7.61
2019-03-31T00:57:16.682Z,7.57
2019-03-31T00:58:16.711Z,7.58
2019-03-31T00:59:16.740Z,7.61
2019-03-31T01:00:19.970Z,7.55
2019-03-31T01:01:16.794Z,7.63
2019-03-31T01:02:16.821Z,7.52
2019-03-31T01:03:16.851Z,7.52
2019-03-31T01:04:16.876Z,7.50
2019-03-31T01:05:16.904Z,7.46
2019-03-31T01:06:16.932Z,7.50
2019-03-31T01:07:16.963Z,7.50
2019-03-31T01:08:16.989Z,7.43
2019-03-31T01:09:17.016Z,7.52
2019-03-31T01:10:17.043Z,7.49
2019-03-31T01:11:17.073Z,7.48
2019-03-31T01:12:17.098Z,7.48
2019-03-31T01:13:17.127Z,7.52
2019-03-31T01:14:17.156Z,7.50
2019-03-31T01:15:17.183Z,7.53
2019-03-31T01:16:17.210Z,7.49
2019-03-31T01:17:18.793Z,7.49
2019-03-31T01:18:17.265Z,7.49
2019-03-31T01:19:17.293Z,7.34
2019-03-31T01:20:17.320Z,7.25
2019-03-31T01:21:17.348Z,7.32
2019-03-31T01:22:17.375Z,7.28
2019-03-31T01:23:17.403Z,7.24
2019-03-31T01:24:17.492Z,7.09
2019-03-31T01:25:17.465Z,7.12
2019-03-31T01:26:17.487Z,6.89
2019-03-31T01:27:17.513Z,6.91
2019-03-31T01:28:17.544Z,6.79
2019-03-31T01:29:17.569Z,6.69
2019-03-31T01:30:17.597Z,6.59
2019-03-31T01:31:17.624Z,6.64
2019-03-31T01:32:17.652Z,6.61
2019-03-31T01:33:17.678Z,6.54
2019-03-31T01:34:17.909Z,6.51
2019-03-31T01:35:17.734Z,6.52
2019-03-31T01:36:17.760Z,6.59
2019-03-31T01:37:20.131Z,6.56
2019-03-31T01:38:17.816Z,6.62
2019-03-31T01:39:17.844Z,6.71
2019-03-31T01:40:17.875Z,6.87
2019-03-31T01:41:18.227Z,6.89
2019-03-31T01:42:17.926Z,7.06
2019-03-31T01:43:17.954Z,7.10
2019-03-31T01:44:17.980Z,7.10
2019-03-31T01:45:18.008Z,7.03
2019-03-31T01:46:18.036Z,6.89
2019-03-31T01:47:18.101Z,6.73
2019-03-31T01:48:18.118Z,6.51
2019-03-31T01:49:18.118Z,6.21
2019-03-31T01:50:18.147Z,6.06
2019-03-31T01:51:18.174Z,5.93
2019-03-31T01:52:18.200Z,5.93
2019-03-31T01:53:18.229Z,5.83
2019-03-31T01:54:18.254Z,5.78
2019-03-31T01:55:18.283Z,5.81
2019-03-31T01:56:18.310Z,5.85
2019-03-31T01:57:18.337Z,5.97
2019-03-31T01:58:18.365Z,6.17
2019-03-31T01:59:18.393Z,6.11
2019-03-31T02:00:18.422Z,6.14
2019-03-31T02:01:18.448Z,6.28
2019-03-31T02:02:18.474Z,6.31
2019-03-31T02:03:18.502Z,6.37
2019-03-31T02:04:18.529Z,6.44
2019-03-31T02:05:18.555Z,6.48
2019-03-31T02:06:18.584Z,6.49
2019-03-31T02:07:18.610Z,6.64
2019-03-31T02:08:18.644Z,6.59
2019-03-31T02:09:18.665Z,6.71
2019-03-31T02:10:18.692Z,6.67
2019-03-31T02:11:18.719Z,6.69
2019-03-31T02:12:18.749Z,6.59
2019-03-31T02:13:18.774Z,6.56
2019-03-31T02:14:18.806Z,6.56
2019-03-31T02:15:18.828Z,6.54
2019-03-31T02:16:18.856Z,6.59
2019-03-31T02:17:18.883Z,6.73
2019-03-31T02:18:18.910Z,6.76
2019-03-31T02:19:18.938Z,6.71
2019-03-31T02:20:18.964Z,6.66
2019-03-31T02:21:18.993Z,6.66
2019-03-31T02:22:19.020Z,6.69
2019-03-31T02:23:19.047Z,6.69
2019-03-31T02:24:19.073Z,6.73
2019-03-31T02:25:19.103Z,6.71
2019-03-31T02:26:19.129Z,6.74
2019-03-31T02:27:19.156Z,6.73
2019-03-31T02:28:19.186Z,6.67
2019-03-31T02:29:19.211Z,6.71
2019-03-31T02:30:19.238Z,6.73
2019-03-31T02:31:19.266Z,6.74
2019-03-31T02:32:24.109Z,6.79
2019-03-31T02:33:19.320Z,6.81
2019-03-31T02:34:19.365Z,6.81
2019-03-31T02:35:19.374Z,6.79
2019-03-31T02:36:19.401Z,6.91
2019-03-31T02:37:19.431Z,6.91
2019-03-31T02:38:19.459Z,6.91
2019-03-31T02:39:19.484Z,6.89
2019-03-31T02:40:19.510Z,6.81
2019-03-31T02:41:19.547Z,6.73
2019-03-31T02:42:19.564Z,6.76
2019-03-31T02:43:19.593Z,6.67
2019-03-31T02:44:19.618Z,6.67
2019-03-31T02:45:19.646Z,6.67
2019-03-31T02:46:19.674Z,6.70
2019-03-31T02:47:19.700Z,6.73
2019-03-31T02:48:19.726Z,6.67
2019-03-31T02:49:19.754Z,6.71
2019-03-31T02:50:19.781Z,6.95
2019-03-31T02:51:19.974Z,6.85
2019-03-31T02:52:19.834Z,6.80
2019-03-31T02:53:19.862Z,6.85
2019-03-31T02:54:19.898Z,6.85
2019-03-31T02:55:19.928Z,6.87
2019-03-31T02:56:19.943Z,6.89
2019-03-31T02:57:19.971Z,6.92
2019-03-31T02:58:19.999Z,6.79
2019-03-31T02:59:20.027Z,6.94
2019-03-31T03:00:20.053Z,6.88
2019-03-31T03:01:20.080Z,6.79
2019-03-31T03:02:20.107Z,6.84
2019-03-31T03:03:20.135Z,6.73
2019-03-31T03:04:20.161Z,6.79
2019-03-31T03:05:20.543Z,6.77
2019-03-31T03:06:20.235Z,6.71
2019-03-31T03:07:20.243Z,6.61
2019-03-31T03:08:20.269Z,6.48
2019-03-31T03:09:20.299Z,6.51
2019-03-31T03:10:20.324Z,6.49
2019-03-31T03:11:20.352Z,6.56
2019-03-31T03:12:20.377Z,6.55
2019-03-31T03:13:20.405Z,6.54
2019-03-31T03:14:20.439Z,6.55
2019-03-31T03:15:20.464Z,6.46
2019-03-31T03:16:20.486Z,6.64
2019-03-31T03:17:20.515Z,6.73
2019-03-31T03:18:20.546Z,6.58
2019-03-31T03:19:20.569Z,6.59
2019-03-31T03:20:20.602Z,6.67
2019-03-31T03:21:24.165Z,6.58
2019-03-31T03:22:20.710Z,6.51
2019-03-31T03:23:20.748Z,6.48
2019-03-31T03:24:20.709Z,6.44
2019-03-31T03:25:20.735Z,6.38
2019-03-31T03:26:20.761Z,6.28
2019-03-31T03:27:20.784Z,6.28
2019-03-31T03:28:20.811Z,6.22
2019-03-31T03:29:20.839Z,6.25
2019-03-31T03:30:21.085Z,6.22
2019-03-31T03:31:20.961Z,6.18
2019-03-31T03:32:20.920Z,6.15
2019-03-31T03:33:21.176Z,6.08
2019-03-31T03:34:20.978Z,6.04
2019-03-31T03:35:21.000Z,6.06
2019-03-31T03:36:21.029Z,6.11
2019-03-31T03:37:21.190Z,6.11
2019-03-31T03:38:21.082Z,6.06
2019-03-31T03:39:21.108Z,6.06
2019-03-31T03:40:21.136Z,5.97
2019-03-31T03:41:21.164Z,6.08
2019-03-31T03:42:21.195Z,6.08
2019-03-31T03:43:21.218Z,6.09
2019-03-31T03:44:21.254Z,6.08
2019-03-31T03:45:21.275Z,6.09
2019-03-31T03:46:21.301Z,6.09
2019-03-31T03:47:21.344Z,6.03
2019-03-31T03:48:21.351Z,6.03
2019-03-31T03:49:21.378Z,6.04
2019-03-31T03:50:21.404Z,6.11
2019-03-31T03:51:21.458Z,6.00
2019-03-31T03:52:21.470Z,6.04
2019-03-31T03:53:21.581Z,5.99
2019-03-31T03:54:21.513Z,5.94
2019-03-31T03:55:21.542Z,5.93
2019-03-31T03:56:21.568Z,5.93
2019-03-31T03:57:21.594Z,5.90
2019-03-31T03:58:21.622Z,5.91
2019-03-31T03:59:21.648Z,5.93
2019-03-31T04:00:21.674Z,6.04
2019-03-31T04:01:21.702Z,5.96
2019-03-31T04:02:21.738Z,6.11
2019-03-31T04:03:29.856Z,6.08
2019-03-31T04:04:21.784Z,5.97
2019-03-31T04:05:21.860Z,6.08
2019-03-31T04:06:21.838Z,6.04
2019-03-31T04:07:21.863Z,6.17
2019-03-31T04:08:21.902Z,6.14
2019-03-31T04:09:21.919Z,6.03
2019-03-31T04:10:21.951Z,6.01
2019-03-31T04:11:22.185Z,5.78
2019-03-31T04:12:22.325Z,5.63
2019-03-31T04:13:22.023Z,5.28
2019-03-31T04:14:22.051Z,5.20
2019-03-31T04:15:22.090Z,5.20
2019-03-31T04:16:22.104Z,5.13
2019-03-31T04:17:22.136Z,5.17
2019-03-31T04:18:22.165Z,5.28
2019-03-31T04:19:22.185Z,5.36
2019-03-31T04:20:22.211Z,5.38
2019-03-31T04:21:22.239Z,5.45
2019-03-31T04:22:22.266Z,5.43
2019-03-31T04:23:22.291Z,5.28
2019-03-31T04:24:22.317Z,5.33
2019-03-31T04:25:22.345Z,5.31
2019-03-31T04:26:22.371Z,5.36
2019-03-31T04:27:22.396Z,5.43
2019-03-31T04:28:22.424Z,5.40
2019-03-31T04:29:22.451Z,5.38
2019-03-31T04:30:22.494Z,5.25
2019-03-31T04:31:22.669Z,5.30
2019-03-31T04:32:22.631Z,5.21
2019-03-31T04:33:22.558Z,5.04
2019-03-31T04:34:22.584Z,4.78
2019-03-31T04:35:22.611Z,4.72
2019-03-31T04:36:22.636Z,4.65
2019-03-31T04:37:22.675Z,4.55
2019-03-31T04:38:22.699Z,4.60
2019-03-31T04:39:22.722Z,4.67
2019-03-31T04:40:22.743Z,4.82
2019-03-31T04:41:22.770Z,5.00
2019-03-31T04:42:22.797Z,5.06
2019-03-31T04:43:22.827Z,5.15
2019-03-31T04:44:22.850Z,5.25
2019-03-31T04:45:22.876Z,5.27
2019-03-31T04:46:22.907Z,5.06
2019-03-31T04:47:22.930Z,5.02
2019-03-31T04:48:22.962Z,5.12
2019-03-31T04:49:22.983Z,5.13
2019-03-31T04:50:23.009Z,5.15
2019-03-31T04:51:23.036Z,5.21
2019-03-31T04:52:23.061Z,5.30
2019-03-31T04:53:23.088Z,5.39
2019-03-31T04:54:23.114Z,5.31
2019-03-31T04:55:23.141Z,5.35
2019-03-31T04:56:23.167Z,5.22
2019-03-31T04:57:23.196Z,5.25
2019-03-31T04:58:23.220Z,5.06
2019-03-31T04:59:23.248Z,4.99
2019-03-31T05:00:23.273Z,4.85
2019-03-31T05:01:23.304Z,4.65
2019-03-31T05:02:26.878Z,4.63
2019-03-31T05:03:23.352Z,4.45
2019-03-31T05:04:23.382Z,4.45
2019-03-31T05:05:23.404Z,4.45
2019-03-31T05:06:23.432Z,4.50
2019-03-31T05:07:23.458Z,4.52
2019-03-31T05:08:23.483Z,4.52
2019-03-31T05:09:23.512Z,4.52
2019-03-31T05:10:23.538Z,4.55
2019-03-31T05:11:23.564Z,4.58
2019-03-31T05:12:23.591Z,4.55
2019-03-31T05:13:23.616Z,4.50
2019-03-31T05:14:23.644Z,4.67
2019-03-31T05:15:23.669Z,4.69
2019-03-31T05:16:23.696Z,4.86
2019-03-31T05:17:23.722Z,4.80
2019-03-31T05:18:23.754Z,4.88
2019-03-31T05:19:23.780Z,4.80
2019-03-31T05:20:23.799Z,4.72
2019-03-31T05:21:23.828Z,4.62
2019-03-31T05:22:23.853Z,4.59
2019-03-31T05:23:23.880Z,4.59
2019-03-31T05:24:23.905Z,4.55
2019-03-31T05:25:23.932Z,4.60
2019-03-31T05:26:23.960Z,4.66
2019-03-31T05:27:23.985Z,4.65
2019-03-31T05:28:24.013Z,4.92
2019-03-31T05:29:24.038Z,4.88
2019-03-31T05:30:24.064Z,5.02
2019-03-31T05:31:24.091Z,5.10
2019-03-31T05:32:24.116Z,5.17
2019-03-31T05:33:24.143Z,5.17
2019-03-31T05:34:24.173Z,5.33
2019-03-31T05:35:26.912Z,5.36
2019-03-31T05:36:24.222Z,5.43
2019-03-31T05:37:24.248Z,5.48
2019-03-31T05:38:24.279Z,5.36
2019-03-31T05:39:24.303Z,5.33
2019-03-31T05:40:24.330Z,5.21
2019-03-31T05:41:24.354Z,5.33
2019-03-31T05:42:24.382Z,5.30
2019-03-31T05:43:24.411Z,5.49
2019-03-31T05:44:24.432Z,5.49
2019-03-31T05:45:24.461Z,5.67
2019-03-31T05:46:24.489Z,5.68
2019-03-31T05:47:24.512Z,5.72
2019-03-31T05:48:24.539Z,5.82
2019-03-31T05:49:24.566Z,5.89
2019-03-31T05:50:24.593Z,5.90
2019-03-31T05:51:24.619Z,5.86
2019-03-31T05:52:24.643Z,6.09
2019-03-31T05:53:24.670Z,6.12
2019-03-31T05:54:24.696Z,6.08
2019-03-31T05:55:24.724Z,6.09
2019-03-31T05:56:24.749Z,6.08
2019-03-31T05:57:24.775Z,5.97
2019-03-31T05:58:24.809Z,5.93
2019-03-31T05:59:24.830Z,5.93
2019-03-31T06:00:24.856Z,5.90
2019-03-31T06:01:24.882Z,5.86
2019-03-31T06:02:24.908Z,5.97
2019-03-31T06:03:24.936Z,6.04
2019-03-31T06:04:33.113Z,6.08
2019-03-31T06:05:24.988Z,6.01
2019-03-31T06:06:25.015Z,6.11
2019-03-31T06:07:25.996Z,6.15
2019-03-31T06:08:25.067Z,6.15
2019-03-31T06:09:25.093Z,6.27
2019-03-31T06:10:25.120Z,6.22
2019-03-31T06:11:25.147Z,6.31
2019-03-31T06:12:25.173Z,6.38
2019-03-31T06:13:25.200Z,6.36
2019-03-31T06:14:25.226Z,6.46
2019-03-31T06:15:25.254Z,6.56
2019-03-31T06:16:25.303Z,6.51
2019-03-31T06:17:25.508Z,6.64
2019-03-31T06:18:25.537Z,6.71
2019-03-31T06:22:25.869Z,6.80
2019-03-31T06:23:25.470Z,6.81
2019-03-31T06:24:25.494Z,6.91
2019-03-31T06:25:25.532Z,6.88
2019-03-31T06:26:25.549Z,6.85
2019-03-31T06:27:25.577Z,6.84
2019-03-31T06:28:25.602Z,6.85
2019-03-31T06:29:25.646Z,6.89
2019-03-31T06:30:25.658Z,6.87
2019-03-31T06:31:25.684Z,6.87
2019-03-31T06:32:25.710Z,6.94
2019-03-31T06:33:25.739Z,6.95
2019-03-31T06:34:25.767Z,6.97
2019-03-31T06:35:25.793Z,6.88
2019-03-31T06:36:25.820Z,6.94
2019-03-31T06:37:25.847Z,6.88
2019-03-31T06:38:25.874Z,6.97
2019-03-31T06:39:25.902Z,7.02
2019-03-31T06:40:25.929Z,7.16
2019-03-31T06:41:25.957Z,7.17
2019-03-31T06:42:25.984Z,7.15
2019-03-31T06:43:26.026Z,7.23
2019-03-31T06:44:26.038Z,7.28
2019-03-31T06:45:26.066Z,7.48
2019-03-31T06:46:26.097Z,7.48
2019-03-31T06:47:26.123Z,7.49
2019-03-31T06:48:26.149Z,7.45
2019-03-31T06:49:26.177Z,7.60
2019-03-31T06:50:26.206Z,7.61
2019-03-31T06:51:26.235Z,7.68
2019-03-31T06:52:26.261Z,7.74
2019-03-31T06:53:26.289Z,7.69
2019-03-31T06:54:26.316Z,7.80
2019-03-31T06:55:26.345Z,7.87
2019-03-31T06:56:26.372Z,7.82
2019-03-31T06:57:26.399Z,7.98
2019-03-31T06:58:26.430Z,8.02
2019-03-31T06:59:26.458Z,8.08
2019-03-31T07:00:26.482Z,8.12
2019-03-31T07:01:26.512Z,8.19
2019-03-31T07:02:26.539Z,8.18
2019-03-31T07:03:26.575Z,8.34
2019-03-31T07:04:26.595Z,8.38
2019-03-31T07:05:26.624Z,8.44
2019-03-31T07:06:26.652Z,8.52
2019-03-31T07:07:26.679Z,8.55
2019-03-31T07:08:26.713Z,8.62
2019-03-31T07:09:26.737Z,8.66
2019-03-31T07:10:26.764Z,8.68
2019-03-31T07:11:26.793Z,8.77
2019-03-31T07:12:26.822Z,8.86
2019-03-31T07:13:26.849Z,8.99
2019-03-31T07:14:26.879Z,9.04
2019-03-31T07:15:26.907Z,9.08
2019-03-31T07:16:26.937Z,9.15
2019-03-31T07:17:26.965Z,9.26
2019-03-31T07:18:26.993Z,9.29
2019-03-31T07:19:27.022Z,9.29
2019-03-31T07:20:27.053Z,9.35
2019-03-31T07:21:27.079Z,9.48
2019-03-31T07:22:27.108Z,9.40
2019-03-31T07:23:27.136Z,9.57
2019-03-31T07:24:27.165Z,9.71
2019-03-31T07:25:27.194Z,9.78
2019-03-31T07:26:27.223Z,9.83
2019-03-31T07:27:27.252Z,9.89
2019-03-31T07:28:27.280Z,10.12
2019-03-31T07:29:27.309Z,10.15
2019-03-31T07:30:27.340Z,10.30
2019-03-31T07:31:27.369Z,10.34
2019-03-31T07:32:27.397Z,10.38
2019-03-31T07:33:27.427Z,10.52
2019-03-31T07:34:27.456Z,10.51
2019-03-31T07:35:27.487Z,10.73
2019-03-31T07:36:27.514Z,10.78
2019-03-31T07:37:27.545Z,10.92
2019-03-31T07:38:38.400Z,10.89
2019-03-31T07:39:27.671Z,11.03
2019-03-31T07:40:27.721Z,11.15
2019-03-31T07:41:27.663Z,11.19
2019-03-31T07:42:27.829Z,11.22
2019-03-31T07:43:27.724Z,11.29
2019-03-31T07:44:27.754Z,11.42
2019-03-31T07:45:27.786Z,11.52
2019-03-31T07:46:27.815Z,11.62
2019-03-31T07:47:27.844Z,11.65
2019-03-31T07:48:27.873Z,11.83
2019-03-31T07:49:27.906Z,11.76
2019-03-31T07:50:28.393Z,11.94
2019-03-31T07:51:27.965Z,12.02
2019-03-31T07:52:27.994Z,12.09
2019-03-31T07:53:28.026Z,12.28
2019-03-31T07:54:28.056Z,12.38
2019-03-31T07:55:28.087Z,12.37
2019-03-31T07:56:28.119Z,12.56
2019-03-31T07:57:28.148Z,12.65
2019-03-31T07:58:28.190Z,12.83
2019-03-31T07:59:28.395Z,12.85
2019-03-31T08:00:28.241Z,12.89
2019-03-31T08:01:28.272Z,12.96
2019-03-31T08:02:28.304Z,13.05
2019-03-31T08:03:28.482Z,13.25
2019-03-31T08:04:28.366Z,13.22
2019-03-31T08:05:33.463Z,13.44
2019-03-31T08:06:28.426Z,13.51
2019-03-31T08:07:28.457Z,13.59
2019-03-31T08:08:28.488Z,13.60
2019-03-31T08:09:28.521Z,13.75
2019-03-31T08:10:28.554Z,13.89
2019-03-31T08:11:28.587Z,14.02
2019-03-31T08:12:28.617Z,14.03
2019-03-31T08:13:28.650Z,14.10
2019-03-31T08:14:28.681Z,14.20
2019-03-31T08:15:28.712Z,14.36
2019-03-31T08:16:28.744Z,14.33
2019-03-31T08:17:28.774Z,14.52
2019-03-31T08:18:28.810Z,14.50
2019-03-31T08:19:28.842Z,14.62
2019-03-31T08:20:28.875Z,14.65
2019-03-31T08:21:28.905Z,14.65
2019-03-31T08:22:28.939Z,14.75
2019-03-31T08:23:28.972Z,14.89
2019-03-31T08:24:29.003Z,14.99
2019-03-31T08:25:29.036Z,15.10
2019-03-31T08:26:29.070Z,15.10
2019-03-31T08:27:29.103Z,15.11
2019-03-31T08:28:29.138Z,15.13
2019-03-31T08:29:29.168Z,15.11
2019-03-31T08:30:29.202Z,15.19
2019-03-31T08:31:29.236Z,15.13
2019-03-31T08:32:29.266Z,15.23
2019-03-31T08:33:29.302Z,15.27
2019-03-31T08:34:29.335Z,15.14
2019-03-31T08:35:29.368Z,15.19
2019-03-31T08:36:29.401Z,15.38
2019-03-31T08:37:29.434Z,15.47
2019-03-31T08:38:29.468Z,15.57
2019-03-31T08:39:29.501Z,15.44
2019-03-31T08:40:29.534Z,15.50
2019-03-31T08:41:29.568Z,15.59
2019-03-31T08:42:29.602Z,15.67
2019-03-31T08:43:29.641Z,15.65
2019-03-31T08:44:29.670Z,15.83
2019-03-31T08:45:30.571Z,15.87
2019-03-31T08:46:29.737Z,15.87
2019-03-31T08:47:29.776Z,15.78
2019-03-31T08:48:29.804Z,15.90
2019-03-31T08:49:29.839Z,15.89
2019-03-31T08:50:29.874Z,15.87
2019-03-31T08:51:29.908Z,16.15
2019-03-31T08:52:29.940Z,16.31
2019-03-31T08:53:29.975Z,16.12
2019-03-31T08:54:30.009Z,16.30
2019-03-31T08:55:30.044Z,16.24
2019-03-31T08:56:30.077Z,16.25
2019-03-31T08:57:30.134Z,16.39
2019-03-31T08:58:30.146Z,16.50
2019-03-31T08:59:30.181Z,16.60
2019-03-31T09:00:30.221Z,16.75
2019-03-31T09:01:30.254Z,16.94
2019-03-31T09:02:30.283Z,16.81
2019-03-31T09:03:30.323Z,16.94
2019-03-31T09:04:30.356Z,16.82
2019-03-31T09:05:30.387Z,17.38
2019-03-31T09:06:30.422Z,17.92
2019-03-31T09:07:30.457Z,18.29
2019-03-31T09:08:30.491Z,19.06
2019-03-31T09:09:30.528Z,19.98
2019-03-31T09:10:30.563Z,20.35
2019-03-31T09:11:30.599Z,21.22
2019-03-31T09:12:30.636Z,22.15
2019-03-31T09:13:30.694Z,22.91
2019-03-31T09:14:31.518Z,23.43
2019-03-31T09:15:30.752Z,22.68
2019-03-31T09:16:30.782Z,22.27
2019-03-31T09:17:30.822Z,22.25
2019-03-31T09:18:30.858Z,22.57
2019-03-31T09:19:30.898Z,23.15
2019-03-31T09:20:30.935Z,23.54
2019-03-31T09:21:30.976Z,24.20
2019-03-31T09:22:31.014Z,23.80
2019-03-31T09:23:33.678Z,22.91
2019-03-31T09:24:31.115Z,23.40
2019-03-31T09:25:31.159Z,22.97
2019-03-31T09:26:31.173Z,23.31
2019-03-31T09:27:31.235Z,23.68
2019-03-31T09:28:31.253Z,23.83
2019-03-31T09:32:31.416Z,24.64
2019-03-31T09:33:31.481Z,24.87
2019-03-31T09:34:31.727Z,25.13
2019-03-31T09:35:31.543Z,24.90
2019-03-31T09:36:31.583Z,24.62
2019-03-31T09:37:31.624Z,24.60
2019-03-31T09:38:31.668Z,23.88
2019-03-31T09:39:31.710Z,23.75
2019-03-31T09:40:31.754Z,23.98
2019-03-31T09:41:31.795Z,23.80
2019-03-31T09:42:31.837Z,23.13
2019-03-31T09:43:31.883Z,23.97
2019-03-31T09:44:31.922Z,24.20
2019-03-31T09:45:31.970Z,24.52
2019-03-31T09:46:32.011Z,25.39
2019-03-31T09:47:32.052Z,25.38
2019-03-31T09:48:32.096Z,26.01
2019-03-31T09:49:32.137Z,26.51
2019-03-31T09:50:32.181Z,25.94
2019-03-31T09:51:32.227Z,25.54
2019-03-31T09:52:32.268Z,24.35
2019-03-31T09:53:32.312Z,24.95
2019-03-31T09:54:32.356Z,25.54
2019-03-31T09:55:32.401Z,24.30
2019-03-31T09:56:32.772Z,24.30
2019-03-31T09:57:32.515Z,24.96
2019-03-31T09:58:32.533Z,24.13
2019-03-31T09:59:32.603Z,24.18
2019-03-31T10:00:32.645Z,24.76
2019-03-31T10:01:32.667Z,24.87
2019-03-31T10:02:35.337Z,24.81
2019-03-31T10:03:32.756Z,24.62
2019-03-31T10:04:33.130Z,24.90
2019-03-31T10:05:32.869Z,24.71
2019-03-31T10:06:32.891Z,25.50
2019-03-31T10:07:32.946Z,25.08
2019-03-31T10:09:33.026Z,25.15
2019-03-31T10:10:33.074Z,25.20
2019-03-31T10:11:33.140Z,25.82
2019-03-31T10:12:33.160Z,26.43
2019-03-31T10:14:35.875Z,27.87
2019-03-31T10:15:33.299Z,27.62
2019-03-31T10:16:33.646Z,25.15
2019-03-31T10:17:33.390Z,25.14
2019-03-31T10:18:33.435Z,26.13
2019-03-31T10:19:33.484Z,25.87
2019-03-31T10:20:34.942Z,26.45
2019-03-31T10:21:33.595Z,26.43
2019-03-31T10:22:33.646Z,26.94
2019-03-31T10:25:59.581Z,26.57
2019-03-31T10:26:59.629Z,27.66
2019-03-31T10:28:00.003Z,28.04
2019-03-31T10:29:47.292Z,28.86
2019-03-31T10:30:47.427Z,28.86
2019-03-31T10:31:47.611Z,29.85
2019-03-31T10:32:47.509Z,28.29
2019-03-31T10:33:47.503Z,28.36
2019-03-31T10:34:47.526Z,28.92
2019-03-31T10:35:47.574Z,29.14
2019-03-31T10:36:47.622Z,29.48
2019-03-31T10:37:50.292Z,29.78
2019-03-31T10:38:47.717Z,29.14
2019-03-31T10:39:47.763Z,29.28
2019-03-31T10:40:47.811Z,29.30
2019-03-31T10:41:48.062Z,27.97
2019-03-31T10:42:47.929Z,29.42
2019-03-31T10:43:47.954Z,30.00
2019-03-31T10:44:48.002Z,29.61
2019-03-31T10:45:48.251Z,29.60
2019-03-31T10:49:13.271Z,30.54
2019-03-31T10:50:13.317Z,30.55
2019-03-31T10:51:13.365Z,30.58
2019-03-31T10:52:16.449Z,31.39
2019-03-31T10:53:13.462Z,32.06
2019-03-31T10:55:13.581Z,31.96
2019-03-31T10:56:13.634Z,30.70
2019-03-31T10:57:14.288Z,30.55
2019-03-31T10:58:14.034Z,30.69
2019-03-31T10:59:13.784Z,31.47
2019-03-31T11:00:16.450Z,31.28
2019-03-31T11:01:13.852Z,32.28
2019-03-31T11:04:14.001Z,32.75
2019-03-31T11:05:14.072Z,32.03
2019-03-31T11:06:15.035Z,31.41
2019-03-31T11:07:14.375Z,32.79
2019-03-31T11:09:14.246Z,33.44
2019-03-31T11:10:14.297Z,34.56
2019-03-31T11:11:14.346Z,33.23
2019-03-31T11:12:14.397Z,33.38
2019-03-31T11:13:14.445Z,31.57
2019-03-31T11:14:14.493Z,31.99
2019-03-31T11:15:14.544Z,32.70
2019-03-31T11:16:14.595Z,32.48
2019-03-31T11:17:14.644Z,32.97
2019-03-31T11:18:14.696Z,32.43
2019-03-31T11:19:14.746Z,32.88
2019-03-31T11:20:14.795Z,32.56
2019-03-31T11:21:14.844Z,32.77
2019-03-31T11:22:14.892Z,32.51
2019-03-31T11:23:14.942Z,32.48
2019-03-31T11:24:14.994Z,32.82
2019-03-31T11:25:21.156Z,33.44
2019-03-31T11:26:15.090Z,33.29
2019-03-31T11:27:15.142Z,33.00
2019-03-31T11:28:15.197Z,32.93
2019-03-31T11:29:15.250Z,32.87
2019-03-31T11:30:15.289Z,32.25
2019-03-31T11:31:17.993Z,32.50
2019-03-31T11:32:15.386Z,32.66
2019-03-31T11:33:15.436Z,32.32
2019-03-31T11:34:15.485Z,32.62
2019-03-31T11:35:15.535Z,32.84
2019-03-31T11:36:15.586Z,33.35
2019-03-31T11:37:15.632Z,33.69
2019-03-31T11:38:15.684Z,34.19
2019-03-31T11:39:16.484Z,34.52
2019-03-31T11:40:15.778Z,34.09
2019-03-31T11:41:15.828Z,33.37
2019-03-31T11:42:15.876Z,33.38
2019-03-31T11:43:15.926Z,32.94
2019-03-31T11:44:15.978Z,31.73
2019-03-31T11:45:16.028Z,31.34
2019-03-31T11:46:16.073Z,31.66
2019-03-31T11:47:16.123Z,32.37
2019-03-31T11:48:16.176Z,32.85
2019-03-31T11:49:16.220Z,33.04
2019-03-31T11:50:16.273Z,33.00
2019-03-31T11:51:16.319Z,33.57
2019-03-31T11:52:16.367Z,33.75
2019-03-31T11:53:16.419Z,33.90
2019-03-31T11:54:16.467Z,33.90
2019-03-31T11:55:16.517Z,34.03
2019-03-31T11:56:16.566Z,33.98
2019-03-31T11:57:17.641Z,33.60
2019-03-31T11:58:16.665Z,34.30
2019-03-31T11:59:16.715Z,33.75
2019-03-31T12:00:16.764Z,34.52
2019-03-31T12:01:16.813Z,34.82
2019-03-31T12:02:26.843Z,35.21
2019-03-31T12:03:16.912Z,35.16
2019-03-31T12:04:16.964Z,34.69
2019-03-31T12:05:17.017Z,34.65
2019-03-31T12:06:17.062Z,34.88
2019-03-31T12:07:27.870Z,34.97
2019-03-31T12:08:17.162Z,35.22
2019-03-31T12:09:17.212Z,34.64
2019-03-31T12:10:19.869Z,34.13
2019-03-31T12:11:17.312Z,34.09
2019-03-31T12:12:17.361Z,34.21
2019-03-31T12:13:17.412Z,33.22
2019-03-31T12:14:17.462Z,32.69
2019-03-31T12:15:17.511Z,32.97
2019-03-31T12:16:17.561Z,32.63
2019-03-31T12:17:17.610Z,32.63
2019-03-31T12:18:17.660Z,33.44
2019-03-31T12:19:17.710Z,34.16
2019-03-31T12:20:17.758Z,32.93
2019-03-31T12:21:17.807Z,33.22
2019-03-31T12:22:17.858Z,33.11
2019-03-31T12:23:17.907Z,32.22
2019-03-31T12:24:17.955Z,32.45
2019-03-31T12:25:19.912Z,32.00
2019-03-31T12:26:18.055Z,32.52
2019-03-31T12:27:18.106Z,32.62
2019-03-31T12:28:18.154Z,32.41
2019-03-31T12:29:18.205Z,32.97
2019-03-31T12:30:18.252Z,32.52
2019-03-31T12:31:18.303Z,33.63
2019-03-31T12:32:18.352Z,32.84
2019-03-31T12:33:18.400Z,32.07
2019-03-31T12:34:18.450Z,31.53
2019-03-31T12:35:18.539Z,31.84
2019-03-31T12:36:18.550Z,32.37
2019-03-31T12:37:18.597Z,32.57
2019-03-31T12:38:18.647Z,33.16
2019-03-31T12:39:18.701Z,32.66
2019-03-31T12:40:18.750Z,31.63
2019-03-31T12:41:18.795Z,30.97
2019-03-31T12:42:18.847Z,30.77
2019-03-31T12:43:18.893Z,32.01
2019-03-31T12:44:18.942Z,32.99
2019-03-31T12:45:18.992Z,32.88
2019-03-31T12:46:19.042Z,33.31
2019-03-31T12:47:19.090Z,32.97
2019-03-31T12:48:19.140Z,33.63
2019-03-31T12:49:19.189Z,34.13
2019-03-31T12:50:19.242Z,34.97
2019-03-31T12:51:19.373Z,35.06
2019-03-31T12:52:19.336Z,35.68
2019-03-31T12:53:19.388Z,36.69
2019-03-31T12:54:19.437Z,34.70
2019-03-31T12:55:19.489Z,35.28
2019-03-31T12:56:19.536Z,35.45
2019-03-31T12:57:19.662Z,36.29
2019-03-31T12:58:19.637Z,36.80
2019-03-31T12:59:19.686Z,36.15
2019-03-31T13:00:19.736Z,36.73
2019-03-31T13:01:19.786Z,37.07
2019-03-31T13:02:19.838Z,36.07
2019-03-31T13:03:19.888Z,36.23
2019-03-31T13:04:19.935Z,35.74
2019-03-31T13:05:19.988Z,35.36
2019-03-31T13:06:20.339Z,35.56
2019-03-31T13:07:20.092Z,35.16
2019-03-31T13:08:20.140Z,35.65
2019-03-31T13:09:20.191Z,35.74
2019-03-31T13:10:20.243Z,35.47
2019-03-31T13:11:20.292Z,34.43
2019-03-31T13:12:20.342Z,34.64
2019-03-31T13:13:20.408Z,34.03
2019-03-31T13:14:20.443Z,34.40
2019-03-31T13:15:20.493Z,34.99
2019-03-31T13:16:20.546Z,34.78
2019-03-31T13:17:20.593Z,34.69
2019-03-31T13:18:20.646Z,33.98
2019-03-31T13:19:20.694Z,33.07
2019-03-31T13:20:20.752Z,32.40
2019-03-31T13:21:20.793Z,32.78
2019-03-31T13:22:20.844Z,33.42
2019-03-31T13:23:20.895Z,33.38
2019-03-31T13:24:20.942Z,34.16
2019-03-31T13:25:20.993Z,34.66